Time;durP1;ratioP1;P1;durP2;ratioP2;P2;SDS_P1;SDS_P2;PMS_P1;PMS_P2;Temp;Humidity;BMP_temperature;BMP_pressure;BME280_temperature;BME280_humidity;BME280_pressure;Samples;Min_cycle;Max_cycle;Signal;HPM_P1;HPM_P2
2021/01/06 00:00:00;;;;;;;24.08;13.23;;;;;;;7.64;59.60;99336.47;4368236;32;20408;-90
2021/01/06 00:02:25;;;;;;;22.50;12.75;;;;;;;7.58;59.60;99348.75;4392600;32;22164;-91
2021/01/06 00:04:51;;;;;;;25.27;13.13;;;;;;;7.66;59.61;99350.22;4356264;32;20102;-91
2021/01/06 00:07:16;;;;;;;23.20;12.88;;;;;;;7.77;59.62;99372.41;4355714;32;27274;-92
2021/01/06 00:09:41;;;;;;;21.17;12.13;;;;;;;7.77;59.61;99381.00;4355524;32;24724;-91
2021/01/06 00:12:07;;;;;;;23.35;13.23;;;;;;;7.75;59.61;99376.78;4356230;32;20098;-91
2021/01/06 00:14:32;;;;;;;23.87;12.80;;;;;;;7.57;59.60;99373.78;4381018;32;20389;-91
2021/01/06 00:16:58;;;;;;;24.30;11.73;;;;;;;7.63;59.61;99378.81;4356308;32;29688;-91
2021/01/06 00:19:23;;;;;;;24.87;12.45;;;;;;;7.62;59.61;99374.53;4356609;32;20178;-92
2021/01/06 00:21:50;;;;;;;25.45;12.32;;;;;;;7.58;59.60;99380.66;4355630;32;34542;-91
2021/01/06 00:24:15;;;;;;;21.20;11.57;;;;;;;7.72;59.61;99380.28;4356428;32;20090;-90
2021/01/06 00:26:41;;;;;;;21.95;12.20;;;;;;;7.58;59.60;99372.91;4368349;32;20126;-90
2021/01/06 00:29:08;;;;;;;20.12;10.90;;;;;;;7.52;59.59;99365.25;4356480;32;20160;-92
2021/01/06 00:31:40;;;;;;;22.35;11.38;;;;;;;7.53;59.59;99366.97;4382055;32;20097;-92
2021/01/06 00:34:06;;;;;;;23.80;12.63;;;;;;;7.38;59.59;99367.38;4381970;32;20117;-92
2021/01/06 00:36:31;;;;;;;24.40;12.00;;;;;;;7.04;59.57;99377.69;4357003;32;20137;-92
2021/01/06 00:38:57;;;;;;;21.75;11.80;;;;;;;7.49;59.60;99378.28;4356961;32;20194;-92
2021/01/06 00:41:27;;;;;;;22.50;12.82;;;;;;;7.36;59.59;99367.41;4355711;32;24951;-90
2021/01/06 00:43:52;;;;;;;23.87;12.23;;;;;;;7.36;59.59;99367.41;4380838;32;21113;-91
2021/01/06 00:46:19;;;;;;;22.33;12.80;;;;;;;7.17;59.57;99373.94;4355706;32;20144;-91
2021/01/06 00:48:44;;;;;;;22.10;12.55;;;;;;;7.39;59.60;99356.97;4381278;32;20173;-92
2021/01/06 00:51:10;;;;;;;26.95;11.95;;;;;;;7.23;59.58;99357.38;4355551;32;21694;-91
2021/01/06 00:53:35;;;;;;;25.27;12.73;;;;;;;7.15;59.57;99367.94;4355875;32;30258;-91
2021/01/06 00:56:00;;;;;;;25.02;13.10;;;;;;;7.23;59.58;99375.50;4356051;32;20415;-89
2021/01/06 00:58:26;;;;;;;24.23;12.98;;;;;;;7.16;59.57;99372.22;4355428;32;34438;-90
2021/01/06 01:00:52;;;;;;;24.58;12.75;;;;;;;7.28;59.59;99371.91;4356164;32;20098;-90
2021/01/06 01:03:18;;;;;;;26.30;13.45;;;;;;;7.28;59.58;99365.88;4356268;32;20137;-91
2021/01/06 01:05:44;;;;;;;23.65;12.73;;;;;;;7.24;59.58;99366.84;4355844;32;25804;-92
2021/01/06 01:08:10;;;;;;;29.08;14.63;;;;;;;7.29;59.58;99373.63;4369032;32;20107;-91
2021/01/06 01:10:43;;;;;;;26.98;14.45;;;;;;;7.28;59.58;99368.47;4355907;32;27745;-91
2021/01/06 01:13:27;;;;;;;28.30;15.05;;;;;;;7.39;59.58;99369.06;4382690;32;20094;-92
2021/01/06 01:15:58;;;;;;;28.40;14.02;;;;;;;6.83;59.56;99376.44;4357655;32;20098;-92
2021/01/06 01:18:25;;;;;;;27.60;14.48;;;;;;;7.02;59.57;99367.38;4382454;32;20168;-94
2021/01/06 01:20:53;;;;;;;26.75;13.07;;;;;;;7.17;59.57;99367.91;4382227;32;20132;-93
2021/01/06 01:23:19;;;;;;;31.80;14.55;;;;;;;7.11;59.58;99371.50;4381477;32;20059;-93
2021/01/06 01:25:44;;;;;;;27.13;14.30;;;;;;;7.05;59.58;99369.03;4381671;32;20108;-92
2021/01/06 01:28:11;;;;;;;26.65;13.70;;;;;;;7.06;59.57;99368.13;4381519;32;20130;-92
2021/01/06 01:30:37;;;;;;;28.87;14.57;;;;;;;7.20;59.58;99357.47;4381372;32;20471;-91
2021/01/06 01:33:02;;;;;;;29.02;15.07;;;;;;;7.18;59.58;99357.50;4381834;32;20120;-93
2021/01/06 01:35:29;;;;;;;26.10;13.20;;;;;;;7.31;59.58;99351.13;4381862;32;20097;-93
2021/01/06 01:37:56;;;;;;;26.02;14.60;;;;;;;7.18;59.58;99349.75;4394330;32;20098;-92
2021/01/06 01:40:23;;;;;;;25.42;13.30;;;;;;;6.95;59.57;99349.44;4381825;32;20111;-91
2021/01/06 01:43:20;;;;;;;26.27;12.43;;;;;;;6.98;59.57;99349.38;4395758;32;20099;-94
2021/01/06 01:45:46;;;;;;;25.98;12.52;;;;;;;6.73;59.56;99346.50;4392159;32;20157;-93
2021/01/06 01:48:26;;;;;;;22.73;11.98;;;;;;;6.63;59.55;99350.19;4382093;32;20122;-92
2021/01/06 01:50:51;;;;;;;23.23;12.18;;;;;;;6.77;59.55;99351.56;4394515;32;20136;-94
2021/01/06 01:53:19;;;;;;;23.58;11.25;;;;;;;6.70;59.55;99341.41;4382487;32;20086;-92
2021/01/06 01:55:44;;;;;;;27.70;11.65;;;;;;;6.72;59.55;99329.28;4382172;32;20714;-94
2021/01/06 01:58:13;;;;;;;24.00;10.73;;;;;;;6.87;59.56;99318.59;4381635;32;20117;-94
2021/01/06 02:00:39;;;;;;;21.92;11.30;;;;;;;6.46;59.54;99333.31;4383315;32;20191;-94
2021/01/06 02:03:10;;;;;;;20.37;10.30;;;;;;;6.61;59.55;99336.44;4384428;32;20109;-92
2021/01/06 02:05:38;;;;;;;23.42;11.65;;;;;;;6.53;59.55;99331.44;4395787;32;20675;-94
2021/01/06 02:08:16;;;;;;;24.73;11.52;;;;;;;6.35;59.54;99311.16;4381828;32;20071;-94
2021/01/06 02:10:58;;;;;;;25.73;11.68;;;;;;;6.70;59.55;99310.38;4381783;32;20083;-91
2021/01/06 02:13:32;;;;;;;22.45;11.35;;;;;;;6.63;59.55;99304.50;4381822;32;20162;-94
2021/01/06 02:16:23;;;;;;;26.25;11.43;;;;;;;6.63;59.54;99303.66;4369334;32;20121;-93
2021/01/06 02:18:48;;;;;;;23.85;11.32;;;;;;;6.81;59.56;99303.19;4371136;32;20120;-93
2021/01/06 02:21:20;;;;;;;22.62;11.50;;;;;;;6.71;59.55;99302.56;4368724;32;32409;-90
2021/01/06 02:23:50;;;;;;;23.40;11.52;;;;;;;6.66;59.55;99298.41;4367873;32;20105;-90
2021/01/06 02:26:16;;;;;;;22.73;11.15;;;;;;;6.71;59.55;99288.78;4380845;32;20116;-92
2021/01/06 02:28:42;;;;;;;25.10;11.85;;;;;;;6.44;59.54;99288.56;4380642;32;20152;-91
2021/01/06 02:31:07;;;;;;;23.38;11.65;;;;;;;6.41;59.54;99280.88;4355314;32;20110;-92
2021/01/06 02:33:32;;;;;;;24.92;11.98;;;;;;;6.45;59.54;99276.47;4355099;32;28825;-92
2021/01/06 02:35:58;;;;;;;23.08;11.55;;;;;;;6.24;59.52;99280.38;4380784;32;20103;-91
2021/01/06 02:38:23;;;;;;;22.08;11.65;;;;;;;6.24;59.52;99276.94;4380819;32;20109;-91
2021/01/06 02:40:55;;;;;;;23.67;12.40;;;;;;;6.38;59.54;99274.88;4354834;32;28955;-91
2021/01/06 02:43:21;;;;;;;21.37;11.20;;;;;;;6.52;59.55;99270.25;4380981;32;20090;-92
2021/01/06 02:45:46;;;;;;;23.33;11.45;;;;;;;6.25;59.52;99279.50;4380793;32;20098;-93
2021/01/06 02:48:12;;;;;;;21.25;10.93;;;;;;;6.27;59.52;99282.91;4379669;32;23292;-90
2021/01/06 02:50:40;;;;;;;22.77;10.95;;;;;;;6.24;59.53;99274.38;4355556;32;20460;-92
2021/01/06 02:53:07;;;;;;;25.23;10.98;;;;;;;6.28;59.54;99278.56;4379920;32;20090;-91
2021/01/06 02:55:32;;;;;;;23.08;11.02;;;;;;;5.99;59.51;99282.66;4379376;32;20081;-91
2021/01/06 02:58:01;;;;;;;23.77;10.75;;;;;;;6.28;59.52;99276.00;4358636;32;130264;-90
2021/01/06 03:00:27;;;;;;;27.98;11.55;;;;;;;6.06;59.52;99267.84;4356850;32;20078;-91
2021/01/06 03:02:53;;;;;;;21.60;10.30;;;;;;;6.31;59.53;99263.84;4359292;32;20139;-93
2021/01/06 03:05:27;;;;;;;23.23;10.50;;;;;;;6.42;59.54;99267.06;4386041;32;20098;-92
2021/01/06 03:07:52;;;;;;;23.15;11.12;;;;;;;6.16;59.52;99261.63;4386250;32;20130;-93
2021/01/06 03:10:18;;;;;;;23.83;10.52;;;;;;;6.33;59.53;99248.31;4386543;32;20106;-94
2021/01/06 03:12:45;;;;;;;27.13;10.43;;;;;;;6.19;59.52;99240.88;4386021;32;20176;-92
2021/01/06 03:15:11;;;;;;;25.00;10.93;;;;;;;6.04;59.52;99241.19;4383323;32;20118;-92
2021/01/06 03:17:37;;;;;;;23.10;10.52;;;;;;;6.09;59.52;99240.22;4383338;32;21282;-93
2021/01/06 03:20:17;;;;;;;23.87;11.15;;;;;;;6.16;59.52;99248.69;4382967;32;20122;-94
2021/01/06 03:22:45;;;;;;;24.17;10.15;;;;;;;5.87;59.51;99251.84;4383564;32;20083;-92
2021/01/06 03:25:12;;;;;;;21.00;10.82;;;;;;;5.86;59.50;99245.00;4383712;32;20103;-94
2021/01/06 03:27:38;;;;;;;20.62;10.48;;;;;;;5.96;59.51;99245.69;4383392;32;20101;-93
2021/01/06 03:30:06;;;;;;;22.08;10.93;;;;;;;5.89;59.50;99241.50;4382902;32;20653;-92
2021/01/06 03:32:44;;;;;;;24.02;10.95;;;;;;;5.99;59.52;99232.72;4383079;32;20106;-93
2021/01/06 03:35:46;;;;;;;21.23;9.75;;;;;;;6.05;59.51;99233.41;4383174;32;20117;-94
2021/01/06 03:38:15;;;;;;;20.92;11.05;;;;;;;5.95;59.51;99236.25;4374480;32;20748;-95
2021/01/06 03:40:42;;;;;;;21.05;10.18;;;;;;;5.89;59.50;99221.66;4388099;32;20788;-95
2021/01/06 03:43:08;;;;;;;22.02;10.50;;;;;;;5.75;59.49;99221.97;4385104;32;20182;-95
2021/01/06 03:45:33;;;;;;;25.25;11.02;;;;;;;5.95;59.51;99224.19;4385188;32;20099;-96
2021/01/06 03:48:18;;;;;;;22.15;10.38;;;;;;;5.97;59.51;99216.41;4385043;32;20111;-96
2021/01/06 03:50:45;;;;;;;22.87;10.30;;;;;;;5.87;59.51;99218.28;4384774;32;20115;-94
2021/01/06 03:53:22;;;;;;;23.48;11.63;;;;;;;5.76;59.51;99210.78;4384856;32;20094;-95
2021/01/06 03:55:58;;;;;;;26.58;11.23;;;;;;;5.89;59.50;99211.34;4395007;32;20117;-92
2021/01/06 03:58:26;;;;;;;20.00;9.90;;;;;;;6.03;59.51;99204.19;4381429;32;20142;-91
2021/01/06 04:00:58;;;;;;;20.02;9.95;;;;;;;5.90;59.51;99186.41;4369082;32;20103;-90
2021/01/06 04:03:42;;;;;;;23.87;10.30;;;;;;;5.68;59.50;99181.69;4381916;32;20163;-91
2021/01/06 04:06:07;;;;;;;22.65;11.30;;;;;;;5.66;59.49;99198.91;4370007;32;20119;-91
2021/01/06 04:08:38;;;;;;;24.37;10.85;;;;;;;5.69;59.50;99209.22;4382028;32;35803;-90
2021/01/06 04:11:04;;;;;;;21.90;10.30;;;;;;;5.72;59.50;99205.72;4385386;32;20202;-96
2021/01/06 04:13:30;;;;;;;26.27;11.82;;;;;;;5.89;59.51;99211.34;4386631;32;20120;-90
2021/01/06 04:15:55;;;;;;;23.73;10.05;;;;;;;5.72;59.50;99219.47;4355259;32;20144;-94
2021/01/06 04:18:21;;;;;;;21.95;10.85;;;;;;;5.86;59.51;99212.25;4382151;32;20149;-91
2021/01/06 04:20:46;;;;;;;24.17;11.20;;;;;;;5.95;59.51;99208.69;4356809;32;28599;-91
2021/01/06 04:23:14;;;;;;;22.48;11.10;;;;;;;5.86;59.51;99204.50;4356497;32;31502;-91
2021/01/06 04:25:41;;;;;;;25.40;11.25;;;;;;;5.75;59.50;99197.91;4394952;32;20090;-92
2021/01/06 04:28:17;;;;;;;26.52;12.05;;;;;;;5.75;59.49;99192.72;4381720;32;20166;-91
2021/01/06 04:30:56;;;;;;;27.02;12.32;;;;;;;5.80;59.50;99193.47;4369988;32;20110;-92
2021/01/06 04:33:25;;;;;;;26.00;12.10;;;;;;;5.45;59.48;99195.06;4382141;32;20058;-92
2021/01/06 04:35:51;;;;;;;25.30;11.77;;;;;;;5.71;59.50;99186.78;4381985;32;21233;-93
2021/01/06 04:38:19;;;;;;;27.90;11.48;;;;;;;5.60;59.48;99183.56;4381714;32;20083;-94
2021/01/06 04:40:46;;;;;;;25.98;11.18;;;;;;;5.82;59.50;99213.22;4382316;32;20106;-92
2021/01/06 04:43:40;;;;;;;24.25;12.32;;;;;;;5.75;59.49;99216.81;4381758;32;20094;-93
2021/01/06 04:46:39;;;;;;;27.80;12.85;;;;;;;5.69;59.50;99211.78;4393915;32;20090;-92
2021/01/06 04:49:42;;;;;;;24.20;11.88;;;;;;;5.72;59.50;99224.63;4382308;32;20181;-92
2021/01/06 04:52:35;;;;;;;28.35;12.73;;;;;;;5.90;59.50;99214.81;4381404;32;20098;-91
2021/01/06 04:55:29;;;;;;;22.25;12.23;;;;;;;5.97;59.51;99218.97;4368185;32;20160;-90
2021/01/06 04:58:00;;;;;;;26.83;11.88;;;;;;;6.00;59.51;99217.19;4370310;32;20205;-92
2021/01/06 05:00:27;;;;;;;27.60;13.18;;;;;;;5.77;59.51;99216.78;4381933;32;20110;-94
2021/01/06 05:03:08;;;;;;;25.15;12.55;;;;;;;5.72;59.50;99213.47;4396436;32;20102;-93
2021/01/06 05:05:37;;;;;;;24.77;13.18;;;;;;;6.08;59.52;99223.00;4370425;32;20841;-92
2021/01/06 05:08:13;;;;;;;27.90;14.20;;;;;;;6.06;59.52;99218.75;4369254;32;20070;-94
2021/01/06 05:10:44;;;;;;;33.92;13.50;;;;;;;5.91;59.52;99229.41;4368650;32;20137;-91
2021/01/06 05:13:41;;;;;;;26.58;12.68;;;;;;;5.64;59.50;99226.50;4356671;32;20175;-92
2021/01/06 05:16:09;;;;;;;32.50;14.20;;;;;;;5.98;59.51;99220.69;4388889;32;20154;-94
2021/01/06 05:18:35;;;;;;;30.88;14.90;;;;;;;5.91;59.51;99226.84;4384049;32;20132;-94
2021/01/06 05:21:00;;;;;;;36.67;15.52;;;;;;;6.02;59.51;99233.50;4384059;32;20130;-94
2021/01/06 05:23:27;;;;;;;29.98;15.07;;;;;;;6.12;59.51;99237.56;4382724;32;20110;-93
2021/01/06 05:25:53;;;;;;;31.37;15.75;;;;;;;5.95;59.51;99246.59;4383252;32;20161;-93
2021/01/06 05:28:20;;;;;;;34.47;15.77;;;;;;;5.87;59.51;99247.53;4382456;32;20126;-94
2021/01/06 05:30:46;;;;;;;32.30;14.90;;;;;;;6.11;59.52;99255.69;4382050;32;20173;-91
2021/01/06 05:33:13;;;;;;;39.55;14.93;;;;;;;6.23;59.53;99250.25;4380796;32;20114;-93
2021/01/06 05:35:40;;;;;;;35.10;15.55;;;;;;;6.05;59.51;99258.41;4381273;32;20118;-92
2021/01/06 05:38:07;;;;;;;39.97;17.58;;;;;;;5.91;59.52;99253.53;4381078;32;20098;-93
2021/01/06 05:40:33;;;;;;;33.35;15.07;;;;;;;6.24;59.52;99254.53;4380783;32;20166;-92
2021/01/06 05:43:07;;;;;;;40.75;15.02;;;;;;;6.14;59.52;99247.84;4393653;32;20175;-90
2021/01/06 05:45:43;;;;;;;38.38;15.40;;;;;;;6.24;59.53;99251.09;4381178;32;20090;-92
2021/01/06 05:48:36;;;;;;;30.45;14.77;;;;;;;6.28;59.54;99255.31;4380648;32;20094;-92
2021/01/06 05:51:06;;;;;;;32.38;14.82;;;;;;;6.58;59.55;99254.59;4365293;32;20166;-92
2021/01/06 05:53:43;;;;;;;31.02;14.18;;;;;;;6.31;59.53;99248.34;4381037;32;20152;-89
2021/01/06 05:56:43;;;;;;;34.63;14.55;;;;;;;5.94;59.51;99252.63;4375932;32;20150;-94
2021/01/06 05:59:30;;;;;;;31.92;13.88;;;;;;;5.90;59.50;99232.88;4373919;32;20086;-94
2021/01/06 06:02:39;;;;;;;32.97;14.20;;;;;;;6.13;59.53;99222.91;4366861;32;20103;-93
2021/01/06 06:05:13;;;;;;;36.78;14.65;;;;;;;6.08;59.52;99217.84;4370266;32;20115;-92
2021/01/06 06:07:59;;;;;;;34.97;14.65;;;;;;;6.09;59.52;99218.69;4354111;32;20156;-92
2021/01/06 06:10:32;;;;;;;32.88;12.98;;;;;;;5.99;59.52;99214.63;4354554;32;20083;-93
2021/01/06 06:13:25;;;;;;;31.77;13.23;;;;;;;5.96;59.51;99200.03;4343104;32;20106;-95
2021/01/06 06:16:28;;;;;;;32.63;13.10;;;;;;;5.98;59.51;99215.50;4372844;32;20072;-94
2021/01/06 06:19:17;;;;;;;30.75;13.15;;;;;;;5.61;59.50;99231.72;4370449;32;20059;-93
2021/01/06 06:22:09;;;;;;;30.05;13.07;;;;;;;5.74;59.49;99246.09;4367071;32;20111;-93
2021/01/06 06:24:41;;;;;;;32.72;14.25;;;;;;;5.63;59.50;99229.97;4368220;32;20114;-92
2021/01/06 06:27:28;;;;;;;30.92;13.50;;;;;;;5.66;59.49;99237.66;4356206;32;20192;-95
2021/01/06 06:30:30;;;;;;;32.30;14.20;;;;;;;5.60;59.49;99232.63;4369039;32;20102;-93
2021/01/06 06:32:55;;;;;;;32.03;14.68;;;;;;;5.80;59.50;99219.31;4370171;32;20098;-96
2021/01/06 06:35:24;;;;;;;35.60;15.25;;;;;;;5.77;59.50;99222.81;4357354;32;24451;-96
2021/01/06 06:37:51;;;;;;;36.90;16.42;;;;;;;5.58;59.49;99231.81;4367973;32;20097;-95
2021/01/06 06:40:17;;;;;;;39.10;14.77;;;;;;;5.72;59.50;99214.31;4369096;32;20098;-92
2021/01/06 06:42:46;;;;;;;37.22;15.70;;;;;;;5.63;59.50;99219.62;4354479;32;20154;-94
2021/01/06 06:45:11;;;;;;;35.75;16.77;;;;;;;5.82;59.50;99222.69;4381546;32;20168;-93
2021/01/06 06:47:48;;;;;;;31.52;14.77;;;;;;;5.62;59.50;99217.94;4381869;32;20154;-93
2021/01/06 06:50:35;;;;;;;34.03;14.70;;;;;;;5.78;59.50;99229.66;4381516;32;20098;-93
2021/01/06 06:53:38;;;;;;;37.63;15.30;;;;;;;5.73;59.50;99221.16;4381531;32;20140;-91
2021/01/06 06:56:09;;;;;;;31.87;14.18;;;;;;;5.65;59.50;99211.84;4381338;32;20127;-92
2021/01/06 06:58:50;;;;;;;33.45;15.25;;;;;;;5.70;59.50;99221.25;4368949;32;20114;-93
2021/01/06 07:01:38;;;;;;;34.58;14.90;;;;;;;5.57;59.49;99224.09;4369113;32;20094;-94
2021/01/06 07:04:06;;;;;;;37.95;15.50;;;;;;;5.60;59.48;99224.88;4368740;32;20172;-93
2021/01/06 07:06:32;;;;;;;35.30;15.48;;;;;;;5.63;59.50;99229.97;4356374;32;20111;-93
2021/01/06 07:08:59;;;;;;;33.92;14.85;;;;;;;5.74;59.49;99222.03;4357269;32;20149;-93
2021/01/06 07:11:24;;;;;;;40.20;16.65;;;;;;;5.56;59.49;99230.97;4355927;32;20062;-93
2021/01/06 07:13:58;;;;;;;36.58;15.68;;;;;;;5.68;59.49;99224.72;4378694;32;20112;-90
2021/01/06 07:16:59;;;;;;;41.40;16.77;;;;;;;5.61;59.49;99225.72;4347902;32;20107;-90
2021/01/06 07:19:50;;;;;;;40.35;17.15;;;;;;;5.78;59.51;99234.81;4323390;32;20132;-89
2021/01/06 07:22:16;;;;;;;37.03;16.17;;;;;;;5.81;59.50;99231.31;4373734;32;20505;-88
2021/01/06 07:24:52;;;;;;;37.38;16.12;;;;;;;5.63;59.50;99232.56;4375496;32;20094;-90
2021/01/06 07:27:18;;;;;;;35.30;15.45;;;;;;;5.78;59.51;99224.50;4352023;32;20103;-90
2021/01/06 07:29:45;;;;;;;41.53;16.58;;;;;;;5.61;59.50;99231.72;4364193;32;20165;-88
2021/01/06 07:32:11;;;;;;;37.15;17.02;;;;;;;5.69;59.50;99222.13;4376872;32;21102;-89
2021/01/06 07:34:50;;;;;;;40.80;16.52;;;;;;;5.67;59.49;99236.75;4352877;32;20101;-89
2021/01/06 07:37:51;;;;;;;37.97;16.98;;;;;;;5.55;59.49;99229.28;4378656;32;20107;-90
2021/01/06 07:40:22;;;;;;;43.65;17.10;;;;;;;5.98;59.51;99223.25;4375197;32;20118;-90
2021/01/06 07:43:16;;;;;;;41.25;17.52;;;;;;;5.80;59.50;99232.22;4377952;32;20090;-91
2021/01/06 07:45:59;;;;;;;40.80;17.67;;;;;;;5.72;59.50;99226.38;4368255;32;20102;-92
2021/01/06 07:48:38;;;;;;;43.05;17.90;;;;;;;6.05;59.51;99240.31;4368712;32;20098;-91
2021/01/06 07:51:18;;;;;;;42.33;17.15;;;;;;;5.74;59.50;99243.53;4369123;32;20111;-92
2021/01/06 07:54:05;;;;;;;44.72;18.55;;;;;;;5.90;59.51;99232.88;4368833;32;20109;-92
2021/01/06 07:56:40;;;;;;;47.20;18.83;;;;;;;6.13;59.53;99231.50;4381714;32;20178;-92
2021/01/06 07:59:25;;;;;;;51.65;20.62;;;;;;;6.10;59.52;99241.06;4381352;32;20137;-89
2021/01/06 08:01:55;;;;;;;49.13;19.92;;;;;;;6.06;59.52;99244.59;4356139;32;20162;-92
2021/01/06 08:04:49;;;;;;;55.78;21.52;;;;;;;6.05;59.51;99232.56;4354338;32;20077;-90
2021/01/06 08:07:19;;;;;;;46.85;19.37;;;;;;;6.23;59.53;99237.34;4364863;32;20090;-89
2021/01/06 08:09:44;;;;;;;;;;;;;;;6.45;59.54;99246.28;4368241;32;20169;-91
2021/01/06 08:12:50;;;;;;;41.77;18.20;;;;;;;6.54;59.54;99241.78;4367616;32;20045;-95
2021/01/06 08:15:22;;;;;;;49.88;18.77;;;;;;;6.54;59.55;99250.38;4371715;32;20143;-96
2021/01/06 08:17:56;;;;;;;46.58;18.23;;;;;;;6.69;59.55;99255.22;4371243;32;20114;-96
2021/01/06 08:20:28;;;;;;;46.70;20.08;;;;;;;6.44;59.54;99254.94;4370362;32;20133;-91
2021/01/06 08:23:14;;;;;;;41.37;17.45;;;;;;;6.33;59.53;99248.31;4357522;32;20097;-90
2021/01/06 08:25:40;;;;;;;39.80;18.87;;;;;;;6.50;59.54;99253.94;4377989;32;20153;-90
2021/01/06 08:28:16;;;;;;;49.13;19.50;;;;;;;6.58;59.55;99249.44;4373217;32;20086;-91
2021/01/06 08:30:41;;;;;;;51.75;20.40;;;;;;;6.83;59.56;99252.25;4356057;32;20128;-90
2021/01/06 08:33:11;;;;;;;45.65;19.23;;;;;;;6.81;59.57;99263.53;4355837;32;20166;-91
2021/01/06 08:35:39;;;;;;;42.17;18.52;;;;;;;6.91;59.56;99273.66;4355887;32;20523;-89
2021/01/06 08:38:25;;;;;;;49.17;20.05;;;;;;;6.72;59.56;99270.66;4368476;32;20090;-90
2021/01/06 08:40:51;;;;;;;41.47;18.52;;;;;;;6.83;59.56;99274.69;4368437;32;20108;-90
2021/01/06 08:43:16;;;;;;;44.83;19.75;;;;;;;6.85;59.56;99271.19;4368057;32;20200;-91
2021/01/06 08:45:52;;;;;;;43.33;18.70;;;;;;;6.99;59.57;99274.28;4357158;32;20133;-95
2021/01/06 08:48:48;;;;;;;46.45;20.27;;;;;;;7.18;59.59;99271.25;4357169;32;20086;-93
2021/01/06 08:51:15;;;;;;;44.72;19.48;;;;;;;7.15;59.58;99255.78;4353299;32;20106;-93
2021/01/06 08:53:43;;;;;;;46.33;19.33;;;;;;;6.94;59.57;99252.88;4356356;32;20683;-92
2021/01/06 08:56:23;;;;;;;45.20;20.65;;;;;;;6.65;59.56;99255.31;4356091;32;20431;-91
2021/01/06 08:58:53;;;;;;;43.78;19.52;;;;;;;6.84;59.56;99253.13;4356700;32;20107;-92
2021/01/06 09:01:21;;;;;;;;;;;;;;;6.96;59.57;99256.25;4356664;32;20115;-94
2021/01/06 09:04:11;;;;;;;41.67;19.27;;;;;;;7.09;59.58;99262.81;4394614;32;19990;-93
2021/01/06 09:06:50;;;;;;;;;;;;;;;7.07;59.57;99254.22;4370031;32;20087;-92
2021/01/06 09:09:27;;;;;;;50.47;22.65;;;;;;;7.06;59.57;99247.37;4368847;32;19982;-91
2021/01/06 09:11:54;;;;;;;44.28;20.52;;;;;;;7.21;59.58;99248.72;4381557;32;20097;-92
2021/01/06 09:14:30;;;;;;;39.90;18.33;;;;;;;7.22;59.58;99249.56;4380709;32;20089;-92
2021/01/06 09:17:21;;;;;;;53.08;21.77;;;;;;;7.34;59.59;99251.84;4369186;32;20757;-94
2021/01/06 09:20:01;;;;;;;46.28;19.62;;;;;;;7.39;59.58;99250.81;4360194;32;20154;-92
2021/01/06 09:22:26;;;;;;;46.72;21.08;;;;;;;7.30;59.58;99251.03;4356195;32;20090;-92
2021/01/06 09:24:52;;;;;;;49.38;23.05;;;;;;;7.26;59.58;99246.84;4355685;32;21011;-93
2021/01/06 09:27:39;;;;;;;44.00;21.37;;;;;;;7.43;59.60;99251.56;4356054;32;20164;-92
2021/01/06 09:30:09;;;;;;;43.95;20.27;;;;;;;7.53;59.59;99245.25;4381489;32;20481;-93
2021/01/06 09:32:35;;;;;;;43.22;20.45;;;;;;;7.52;59.59;99242.69;4367932;32;20110;-92
2021/01/06 09:35:06;;;;;;;45.15;22.15;;;;;;;7.57;59.60;99239.13;4368901;32;20124;-91
2021/01/06 09:37:33;;;;;;;45.40;21.00;;;;;;;7.55;59.61;99243.47;4356295;32;20143;-93
2021/01/06 09:40:22;;;;;;;44.17;23.48;;;;;;;7.66;59.60;99245.75;4355868;32;20106;-92
2021/01/06 09:43:01;;;;;;;45.38;24.12;;;;;;;7.55;59.60;99240.00;4370895;32;20094;-93
2021/01/06 09:45:27;;;;;;;45.15;22.42;;;;;;;7.66;59.60;99238.00;4357572;32;20203;-93
2021/01/06 09:47:56;;;;;;;48.40;27.00;;;;;;;7.84;59.62;99229.69;4356166;32;20152;-94
2021/01/06 09:50:35;;;;;;;47.08;23.92;;;;;;;7.82;59.61;99238.41;4356590;32;20111;-92
2021/01/06 09:53:02;;;;;;;48.58;21.40;;;;;;;7.79;59.61;99238.47;4357306;32;20129;-93
2021/01/06 09:55:28;;;;;;;45.92;21.92;;;;;;;7.81;59.61;99231.53;4368955;32;20854;-91
2021/01/06 09:58:03;;;;;;;45.58;21.35;;;;;;;7.61;59.61;99232.94;4356859;32;20086;-93
2021/01/06 10:01:06;;;;;;;44.22;21.15;;;;;;;7.92;59.62;99229.47;4357240;32;20160;-92
2021/01/06 10:03:37;;;;;;;44.65;20.88;;;;;;;7.74;59.61;99224.81;4291625;33;20161;-92
2021/01/06 10:06:13;;;;;;;;;;;;;;;7.80;59.61;99222.87;4366555;32;20106;-93
2021/01/06 10:08:46;;;;;;;51.90;22.60;;;;;;;7.84;59.62;99227.09;4368540;32;19986;-93
2021/01/06 10:11:33;;;;;;;44.17;21.30;;;;;;;7.86;59.62;99224.47;4368903;32;20107;-94
2021/01/06 10:14:24;;;;;;;44.13;21.27;;;;;;;7.98;59.62;99229.28;4381262;32;20768;-94
2021/01/06 10:16:53;;;;;;;40.17;18.62;;;;;;;7.91;59.61;99220.84;4381299;32;20105;-93
2021/01/06 10:19:56;;;;;;;39.13;20.15;;;;;;;7.87;59.62;99221.84;4356835;32;20161;-94
2021/01/06 10:22:49;;;;;;;46.28;20.12;;;;;;;7.70;59.61;99224.91;4380809;32;20162;-93
2021/01/06 10:25:41;;;;;;;44.15;21.33;;;;;;;7.94;59.62;99210.38;4368753;32;20753;-95
2021/01/06 10:28:22;;;;;;;51.28;22.40;;;;;;;8.34;59.64;99206.59;4381301;32;20107;-93
2021/01/06 10:31:05;;;;;;;42.92;19.75;;;;;;;8.42;59.64;99207.19;4386019;32;20859;-96
2021/01/06 10:34:27;;;;;;;43.80;20.58;;;;;;;8.60;59.66;99216.16;4423130;27;20059;-96
2021/01/06 10:39:46;;;;;;;43.92;21.37;;;;;;;8.29;59.63;99213.66;4876053;27;20071;-96
2021/01/06 10:42:36;;;;;;;41.72;21.58;;;;;;;8.56;59.65;99197.25;4365914;32;20085;-96
2021/01/06 10:45:53;;;;;;;42.00;22.62;;;;;;;8.57;59.65;99201.53;4392299;32;20042;-96
2021/01/06 10:48:41;;;;;;;53.83;27.27;;;;;;;8.71;59.66;99198.47;4339260;32;20129;-94
2021/01/06 10:51:07;;;;;;;49.13;25.30;;;;;;;8.63;59.66;99197.88;4339823;32;20102;-91
2021/01/06 10:53:32;;;;;;;45.75;24.08;;;;;;;8.74;59.67;99190.56;4327400;32;20187;-92
2021/01/06 10:56:14;;;;;;;48.03;22.87;;;;;;;8.80;59.66;99189.53;4332901;32;20490;-95
2021/01/06 10:58:45;;;;;;;51.03;27.40;;;;;;;8.47;59.65;99188.91;4333893;32;20757;-96
2021/01/06 11:01:10;;;;;;;53.42;27.35;;;;;;;8.72;59.66;99189.78;4342595;32;20101;-96
2021/01/06 11:03:57;;;;;;;52.20;26.02;;;;;;;8.98;59.68;99188.91;4355719;32;20071;-96
2021/01/06 11:06:57;;;;;;;51.17;25.83;;;;;;;9.21;59.69;99185.50;4355774;32;20103;-96
2021/01/06 11:10:05;;;;;;;43.80;22.33;;;;;;;9.17;59.69;99171.78;4356919;32;20138;-96
2021/01/06 11:34:16;;;;;;;45.10;24.05;;;;;;;9.72;59.72;99187.97;3298329;28;20155;-87
2021/01/06 11:40:29;;;;;;;43.28;23.00;;;;;;;9.93;59.73;99175.88;4246609;33;20150;-91
2021/01/06 11:49:53;;;;;;;;;;;;;;;;;;;;;
2021/01/06 11:53:13;;;;;;;41.35;23.00;;;;;;;10.14;59.74;99163.81;4362112;32;36580;-90
2021/01/06 11:56:34;;;;;;;41.67;22.93;;;;;;;10.14;59.73;99164.66;4363263;32;20105;-89
2021/01/06 11:59:15;;;;;;;40.17;20.83;;;;;;;10.21;59.74;99167.91;4345520;32;20217;-93
2021/01/06 12:05:46;;;;;;;38.28;21.87;;;;;;;10.20;59.74;99173.16;4338720;32;20091;-87
2021/01/06 12:09:11;;;;;;;;;;;;;;;;;;;;;
2021/01/06 12:19:31;;;;;;;39.03;20.67;;;;;;;10.01;59.73;99168.66;4336918;33;20103;-94
2021/01/06 12:36:08;;;;;;;39.90;23.02;;;;;;;10.31;59.75;99170.97;4252602;33;20112;-94
2021/01/06 12:38:33;;;;;;;41.55;22.33;;;;;;;10.28;59.75;99163.31;4258995;33;20760;-91
2021/01/06 12:41:17;;;;;;;39.08;21.08;;;;;;;10.37;59.75;99161.16;4258439;33;20125;-90
2021/01/06 12:44:07;;;;;;;40.20;21.87;;;;;;;10.44;59.76;99154.81;4319621;33;20084;-89
2021/01/06 12:46:41;;;;;;;35.22;19.48;;;;;;;10.47;59.76;99164.25;4342350;32;20689;-91
2021/01/06 12:49:10;;;;;;;54.65;34.90;;;;;;;10.55;59.76;99158.72;4349247;32;20748;-90
2021/01/06 12:51:38;;;;;;;36.10;20.65;;;;;;;10.30;59.75;99158.88;4367157;32;20126;-90
2021/01/06 12:54:06;;;;;;;39.55;21.55;;;;;;;10.51;59.76;99152.81;4345546;32;20478;-90
2021/01/06 12:56:40;;;;;;;39.92;23.35;;;;;;;10.49;59.76;99149.44;4351671;32;20095;-89
2021/01/06 12:59:20;;;;;;;40.97;21.87;;;;;;;10.66;59.76;99148.75;4362208;32;20133;-91
2021/01/06 13:01:58;;;;;;;41.90;22.65;;;;;;;10.48;59.76;99150.34;4337256;32;20141;-91
2021/01/06 13:04:48;;;;;;;34.63;20.98;;;;;;;10.38;59.75;99151.59;4361391;32;20170;-90